Ocean Dalian — VRJG8 — position and weather

sailwx.info

Track history (hours):
 
Tides and Currents Weather Stations Pressure Air Temp Water Temp Dewpoint Dewpoint Depression Visibility Wind Speed Wind Dir Waves Ship Positions

Ocean Dalian

Last reported at 2018-Jun-20 03:17 UTC. Time now 2018-Jun-20 18:44 UTC.
Position S 24°26' W 046°13'.

Length 225 m; draft 13.2 m.

Type: Cargo ship. MMSI: 477424800.

Date/timePositionNaut miles runAvg speedWind from/ knotsBaromVisibWave heightAir tempDewpointWater temp
2018-Jun-20 03:17S 24°26' W 046°13'411.2
2018-Jun-20 02:53S 24°22' W 046°15'411.1
2018-Jun-20 02:30S 24°18' W 046°18'611.1
2018-Jun-20 02:00S 24°14' W 046°21'611.0
2018-Jun-20 01:30S 24°08' W 046°23'510.3
2018-Jun-20 01:00S 24°03' W 046°21'4 7.4
2018-Jun-20 00:30S 24°00' W 046°20'3 5.5
2018-Jun-19 23:59S 23°58' W 046°17'  
2018-Jun-11 21:43S 23°58' W 046°18'2 5.9
2018-Jun-11 21:27S 23°60' W 046°18'3 7.5
2018-Jun-11 21:00S 24°02' W 046°21'4 7.3
2018-Jun-11 20:30S 24°06' W 046°20'1 2.1
2018-Jun-11 20:00S 24°06' W 046°21'0 0.0
2018-Jun-11 19:30S 24°05' W 046°21'0 0.0
2018-Jun-11 19:00S 24°05' W 046°21'0 0.0
2018-Jun-11 18:30S 24°05' W 046°21'0 0.0
2018-Jun-11 18:00S 24°05' W 046°21'0 0.0
2018-Jun-11 17:30S 24°05' W 046°21'0 0.0
2018-Jun-11 17:00S 24°05' W 046°21'0 0.0
2018-Jun-11 16:30S 24°05' W 046°21'0 0.0
2018-Jun-11 16:00S 24°05' W 046°21'0 0.0
2018-Jun-11 15:30S 24°05' W 046°21'0 0.0
2018-Jun-11 14:54S 24°05' W 046°21'0 0.0
2018-Jun-11 14:30S 24°05' W 046°21'0 0.0
2018-Jun-11 14:00S 24°05' W 046°21'0 0.1
2018-Jun-11 13:30S 24°05' W 046°21'0 0.0
2018-Jun-11 13:00S 24°05' W 046°21'0 0.0
2018-Jun-11 12:30S 24°05' W 046°21'0 0.0
2018-Jun-11 12:00S 24°05' W 046°21'0 0.0
2018-Jun-11 11:30S 24°05' W 046°21'0 0.0
2018-Jun-11 11:00S 24°05' W 046°21'0 0.0
2018-Jun-11 10:30S 24°06' W 046°21'0 0.1
2018-Jun-11 10:00S 24°05' W 046°21'0 0.0
2018-Jun-11 09:30S 24°05' W 046°21'0 0.1
2018-Jun-11 09:00S 24°06' W 046°21'0 0.1
2018-Jun-11 08:30S 24°06' W 046°21'0 0.0
2018-Jun-11 08:00S 24°06' W 046°21'0 0.1
2018-Jun-11 07:30S 24°06' W 046°21'0 0.0
2018-Jun-11 07:00S 24°06' W 046°21'0 0.0
2018-Jun-11 06:30S 24°06' W 046°21'0 0.0
2018-Jun-11 06:00S 24°06' W 046°21'0 0.1
2018-Jun-11 05:30S 24°05' W 046°21'0 0.0
2018-Jun-11 05:00S 24°05' W 046°21'0 0.0
2018-Jun-11 04:18S 24°05' W 046°21'0 0.0
2018-Jun-11 04:00S 24°05' W 046°21'0 0.0
2018-Jun-11 03:30S 24°05' W 046°21'0 0.0
2018-Jun-11 02:54S 24°05' W 046°21'0 0.0
2018-Jun-11 02:27S 24°05' W 046°21'0 0.0
2018-Jun-11 01:57S 24°05' W 046°21'0 0.0
2018-Jun-11 01:30S 24°05' W 046°21'0 0.1
2018-Jun-11 00:57S 24°05' W 046°21'0 0.0
2018-Jun-11 00:30S 24°05' W 046°21'0 0.0
2018-Jun-10 23:57S 24°05' W 046°21'0 0.0
2018-Jun-10 23:21S 24°05' W 046°21'0 0.0
2018-Jun-10 23:00S 24°05' W 046°21'0 0.0
2018-Jun-10 22:30S 24°05' W 046°21'0 0.0
2018-Jun-10 22:00S 24°06' W 046°21'0 0.0
2018-Jun-10 21:30S 24°06' W 046°21'0 0.1
2018-Jun-10 21:00S 24°05' W 046°21'0 0.1
2018-Jun-10 20:30S 24°05' W 046°21'0 0.1
2018-Jun-10 20:00S 24°05' W 046°21'0 0.1
2018-Jun-10 19:30S 24°05' W 046°21'0 0.0
2018-Jun-10 18:57S 24°05' W 046°21'0 0.1
2018-Jun-10 18:24S 24°05' W 046°21'0 0.0
2018-Jun-10 18:00S 24°05' W 046°21'0 0.2
2018-Jun-10 17:30S 24°05' W 046°21'0 0.0
2018-Jun-10 17:00S 24°05' W 046°21'0 0.0
2018-Jun-10 16:30S 24°05' W 046°21'0 0.1
2018-Jun-10 16:00S 24°05' W 046°21'0 0.0
2018-Jun-10 15:27S 24°05' W 046°21'0 0.0
2018-Jun-10 15:00S 24°05' W 046°21'0 0.0
2018-Jun-10 14:30S 24°05' W 046°21'0 0.0
2018-Jun-10 13:27S 24°05' W 046°21'0 0.0
2018-Jun-10 12:54S 24°05' W 046°21'0 0.0
2018-Jun-10 12:30S 24°05' W 046°21'0 0.0
2018-Jun-10 12:00S 24°05' W 046°21'0 0.0
2018-Jun-10 11:30S 24°05' W 046°21'0 0.0
2018-Jun-10 11:00S 24°05' W 046°21'0 0.0
2018-Jun-10 10:30S 24°05' W 046°21'0 0.1
2018-Jun-10 10:00S 24°05' W 046°21'0 0.0
2018-Jun-10 09:30S 24°05' W 046°21'0 0.0
2018-Jun-10 09:00S 24°05' W 046°21'0 0.0
2018-Jun-10 08:30S 24°05' W 046°21'0 0.0
2018-Jun-10 08:00S 24°05' W 046°21'0 0.0
2018-Jun-10 07:30S 24°05' W 046°21'0 0.0
2018-Jun-10 07:00S 24°05' W 046°21'0 0.0
2018-Jun-10 06:30S 24°05' W 046°21'0 0.0
2018-Jun-10 06:00S 24°05' W 046°21'0 0.0
2018-Jun-10 05:30S 24°05' W 046°21'0 0.0
2018-Jun-10 04:54S 24°05' W 046°21'0 0.0
2018-Jun-10 04:30S 24°05' W 046°21'0 0.0
2018-Jun-10 03:57S 24°05' W 046°21'0 0.0
2018-Jun-10 03:24S 24°05' W 046°21'  
Track history (hours):
 
Tides and Currents Weather Stations Pressure Air Temp Water Temp Dewpoint Dewpoint Depression Visibility Wind Speed Wind Dir Waves Ship Positions

Ocean Dalian

Last reported at 2018-Jun-20 03:17 UTC. Time now 2018-Jun-20 18:44 UTC.
Position S 24°26' W 046°13'.

Length 225 m; draft 13.2 m.

Type: Cargo ship. MMSI: 477424800.

Date/timePositionNaut miles runAvg speedWind from/ knotsBaromVisibWave heightAir tempDewpointWater temp
2018-Jun-20 03:17S 24°26' W 046°13'411.2
2018-Jun-20 02:53S 24°22' W 046°15'411.1
2018-Jun-20 02:30S 24°18' W 046°18'611.1
2018-Jun-20 02:00S 24°14' W 046°21'611.0
2018-Jun-20 01:30S 24°08' W 046°23'510.3
2018-Jun-20 01:00S 24°03' W 046°21'4 7.4
2018-Jun-20 00:30S 24°00' W 046°20'3 5.5
2018-Jun-19 23:59S 23°58' W 046°17'  
2018-Jun-11 21:43S 23°58' W 046°18'2 5.9
2018-Jun-11 21:27S 23°60' W 046°18'3 7.5
2018-Jun-11 21:00S 24°02' W 046°21'4 7.3
2018-Jun-11 20:30S 24°06' W 046°20'1 2.1
2018-Jun-11 20:00S 24°06' W 046°21'0 0.0
2018-Jun-11 19:30S 24°05' W 046°21'0 0.0
2018-Jun-11 19:00S 24°05' W 046°21'0 0.0
2018-Jun-11 18:30S 24°05' W 046°21'0 0.0
2018-Jun-11 18:00S 24°05' W 046°21'0 0.0
2018-Jun-11 17:30S 24°05' W 046°21'0 0.0
2018-Jun-11 17:00S 24°05' W 046°21'0 0.0
2018-Jun-11 16:30S 24°05' W 046°21'0 0.0
2018-Jun-11 16:00S 24°05' W 046°21'0 0.0
2018-Jun-11 15:30S 24°05' W 046°21'0 0.0
2018-Jun-11 14:54S 24°05' W 046°21'0 0.0
2018-Jun-11 14:30S 24°05' W 046°21'0 0.0
2018-Jun-11 14:00S 24°05' W 046°21'0 0.1
2018-Jun-11 13:30S 24°05' W 046°21'0 0.0
2018-Jun-11 13:00S 24°05' W 046°21'0 0.0
2018-Jun-11 12:30S 24°05' W 046°21'0 0.0
2018-Jun-11 12:00S 24°05' W 046°21'0 0.0
2018-Jun-11 11:30S 24°05' W 046°21'0 0.0
2018-Jun-11 11:00S 24°05' W 046°21'0 0.0
2018-Jun-11 10:30S 24°06' W 046°21'0 0.1
2018-Jun-11 10:00S 24°05' W 046°21'0 0.0
2018-Jun-11 09:30S 24°05' W 046°21'0 0.1
2018-Jun-11 09:00S 24°06' W 046°21'0 0.1
2018-Jun-11 08:30S 24°06' W 046°21'0 0.0
2018-Jun-11 08:00S 24°06' W 046°21'0 0.1
2018-Jun-11 07:30S 24°06' W 046°21'0 0.0
2018-Jun-11 07:00S 24°06' W 046°21'0 0.0
2018-Jun-11 06:30S 24°06' W 046°21'0 0.0
2018-Jun-11 06:00S 24°06' W 046°21'0 0.1
2018-Jun-11 05:30S 24°05' W 046°21'0 0.0
2018-Jun-11 05:00S 24°05' W 046°21'0 0.0
2018-Jun-11 04:18S 24°05' W 046°21'0 0.0
2018-Jun-11 04:00S 24°05' W 046°21'0 0.0
2018-Jun-11 03:30S 24°05' W 046°21'0 0.0
2018-Jun-11 02:54S 24°05' W 046°21'0 0.0
2018-Jun-11 02:27S 24°05' W 046°21'0 0.0
2018-Jun-11 01:57S 24°05' W 046°21'0 0.0
2018-Jun-11 01:30S 24°05' W 046°21'0 0.1
2018-Jun-11 00:57S 24°05' W 046°21'0 0.0
2018-Jun-11 00:30S 24°05' W 046°21'0 0.0
2018-Jun-10 23:57S 24°05' W 046°21'0 0.0
2018-Jun-10 23:21S 24°05' W 046°21'0 0.0
2018-Jun-10 23:00S 24°05' W 046°21'0 0.0
2018-Jun-10 22:30S 24°05' W 046°21'0 0.0
2018-Jun-10 22:00S 24°06' W 046°21'0 0.0
2018-Jun-10 21:30S 24°06' W 046°21'0 0.1
2018-Jun-10 21:00S 24°05' W 046°21'0 0.1
2018-Jun-10 20:30S 24°05' W 046°21'0 0.1
2018-Jun-10 20:00S 24°05' W 046°21'0 0.1
2018-Jun-10 19:30S 24°05' W 046°21'0 0.0
2018-Jun-10 18:57S 24°05' W 046°21'0 0.1
2018-Jun-10 18:24S 24°05' W 046°21'0 0.0
2018-Jun-10 18:00S 24°05' W 046°21'0 0.2
2018-Jun-10 17:30S 24°05' W 046°21'0 0.0
2018-Jun-10 17:00S 24°05' W 046°21'0 0.0
2018-Jun-10 16:30S 24°05' W 046°21'0 0.1
2018-Jun-10 16:00S 24°05' W 046°21'0 0.0
2018-Jun-10 15:27S 24°05' W 046°21'0 0.0
2018-Jun-10 15:00S 24°05' W 046°21'0 0.0
2018-Jun-10 14:30S 24°05' W 046°21'0 0.0
2018-Jun-10 13:27S 24°05' W 046°21'0 0.0
2018-Jun-10 12:54S 24°05' W 046°21'0 0.0
2018-Jun-10 12:30S 24°05' W 046°21'0 0.0
2018-Jun-10 12:00S 24°05' W 046°21'0 0.0
2018-Jun-10 11:30S 24°05' W 046°21'0 0.0
2018-Jun-10 11:00S 24°05' W 046°21'0 0.0
2018-Jun-10 10:30S 24°05' W 046°21'0 0.1
2018-Jun-10 10:00S 24°05' W 046°21'0 0.0
2018-Jun-10 09:30S 24°05' W 046°21'0 0.0
2018-Jun-10 09:00S 24°05' W 046°21'0 0.0
2018-Jun-10 08:30S 24°05' W 046°21'0 0.0
2018-Jun-10 08:00S 24°05' W 046°21'0 0.0
2018-Jun-10 07:30S 24°05' W 046°21'0 0.0
2018-Jun-10 07:00S 24°05' W 046°21'0 0.0
2018-Jun-10 06:30S 24°05' W 046°21'0 0.0
2018-Jun-10 06:00S 24°05' W 046°21'0 0.0
2018-Jun-10 05:30S 24°05' W 046°21'0 0.0
2018-Jun-10 04:54S 24°05' W 046°21'0 0.0
2018-Jun-10 04:30S 24°05' W 046°21'0 0.0
2018-Jun-10 03:57S 24°05' W 046°21'0 0.0
2018-Jun-10 03:24S 24°05' W 046°21'  

Dump ship's entire track history